メインページ
METAR-TAF:

METAR-TAF

空港 :

NWS Office

ポンペイ島, ミクロネシア

緯度: 06-58N, 経度: 158-13E, 海抜: 39m

現時点の気象観測

当レポートは8分前の12:52(UTC)に作成
東/北東の風 3kt
気温 28°C
湿度 89%
気圧 1009 hPa
視程: 24.1km
高度1800ftの千切れ雲あり
高度30000ftの千切れ雲あり

METAR: PTTP 101252Z 07003KT 15SM BKN018 BKN300 28/26 A2981 RMK SLP095 T02750256 402840240

時間: 00:00 (13:00 UTC)


TAF: 見つかりません

4,000以上の空港の気象観測と天気予報(METAR報とTAF報)

利用可能な観測所は地図上に黄色い丸と赤い丸で示す。

丸の上にカーソルを重ねると観測所名を参照できる。

次にクリックすると気象観測と天気予報を参照できる。

マップの切り替え:黒色「×」印の緑ボタンをクリックして拡大、「-」印の緑ボタンをクリックして縮小、緑色の三角印をクリックして隣りの地図に切り替え


METAR-TAF: